Mount Lemmon, AZ

12:54 AM MST on February 27, 2015 (GMT -0700)
Davis-Monthan Air Force Base | Change Station
CLOSE
Current Station
Airport
Location: Tucson Davis Monthan,
Elevation: 2703 ft
Nearby Weather Stations

Elev 2703 ft 32.17 °N, 110.88 °W | Updated 56 minutes ago

Clear
Clear
49 °F
Feels Like 49 °F
N
10
Wind Variable Wind from SE

Today
High -- | Low -- °F
--% Chance of Precip.
Yesterday
High -- | Low -- °F
Precip. -- in
6:53 AM 6:18 PM
Waxing Gibbous, 66% visible
Pressure 29.77 in
Visibility 10.0 miles
Clouds Clear
Dew Point 29 °F
Humidity 46%
Rainfall 0.00 in
Snow Depth Not available.
UV 0 out of 12
Pollen 8.70 out of 12
Air Quality Not available.
Flu Activity Not available.
METAR KDMA 270658Z AUTO 13009KT 10SM CLR 10/M01 A2983 RMK AO2 SLP080 T00951015 402250053 $

More Conditions Fewer Conditions

Pressure 29.77 in
Visibility 10.0 miles
Clouds Clear
Dew Point 29 °F
Humidity 46%
Rainfall 0.00 in
Snow Depth Not available.
UV 0 out of 12
Pollen 8.70 out of 12
Air Quality Not available.
Flu Activity Not available.
METAR KDMA 270658Z AUTO 13009KT 10SM CLR 10/M01 A2983 RMK AO2 SLP080 T00951015 402250053 $

More Conditions Fewer Conditions

10-Day Weather Forecast

Almanac

Astronomy

Feb. 27, 2015 Rise Set
Actual Time
Civil Twilight
Nautical Twilight
Astronomical Twilight
Moon
Length of Visible Light
Length of Day
Tomorrow will be .
, % of the Moon is Illuminated

Today's Extremes

State Highs State Lows

Community

WunderPhotos

Upload Photos

1,800,649 photos uploaded!

WunderBlogs® & News

Nearby

Air Quality

  Air Quality AQ Index Pollutant
Not available.

Snow Depth

Station Depth Elevation

Earthquake Activity

City Distance Mag. Time & Date
Minimum magnitude displayed is 2.5.

Coastal Water Temperatures

Place Temperature

Nearby Weather Stations